Aeroporto :
LOGIN :

Iscrizione | Disclaimer

   EN    FR    IT 

 










Sommario :    VFR   VFR Marginale   IFR   IFR Intensivo   IFR Molto Intensivo
Visibilità : 
Base nubi : 
>= 8 km
>= 3000ft
5 / 8 km
1000 / 3000 ft
1500m / 5 km
500 / 1000 ft
800 / 1500m
200 / 500 ft
< 800m
< 200 ft
Simboli :   Temporali  Nebbia  Neve Forte  Precipitazioni Forti  Vento > 20 kt
SIGMETs :   Varie  Temporali  Ghiacco  Turbolenza  Onda orograficha  Ceneri Vulcaniche






- Altitudine del aeroporto : 408 ft
- Codice IATA : FKB


EDSB - Karlsruhe Baden Baden

ULTIMO METAR :
  • 142020Z 23012KT 200V270 9999 FEW038 10/04 Q1006

METARs OBSOLETI :
  • 141950Z 23013KT 9999 FEW038 10/05 Q1005
  • 141920Z 23011KT 9999 FEW009 09/04 Q1005
  • 141850Z 21007KT 9999 -RA FEW019 BKN040 OVC045 08/04 Q1004
  • 141820Z 23012KT 9999 -RA OVC041 09/03 Q1004
  • 141750Z 22017KT 9999 -RA OVC044 10/02 Q1003

TAF TAF EDSB
Valido dal 14 a 18 ore il 15 a 18 ore UTC


141700Z 1418/1518 21015G25KT 9999 BKN035
TEMPO 1418/1424 21012KT
TEMPO 1502/1508 22020G30KT 4000 RA BKN010
PROB30
TEMPO 1508/1518 SHRA SCT025TCU



MetMap, La meteo Aeronautica in un colpo d'occhio ! - Copyright ORBIFLY Dicembre 2007 - Disclaimer

ORBIFLY MET'MAP TEAM :

Programmazione e sviluppo : Alexandra Zaïnal
Concezione : Baudouin d'Aumeries
Aiuto per la programmazione : Marc-Olivier Méhu
Supporto tecnico e logistico : Manuel Goepfert
Aiuto per la traduzione : Arnaldo La Scala

Contatto : metmap@orbifly.com




FONTI E CREDITI :

   NOAA